Language: 


Des rapports , des résumés tant et plus, au choix de chacun....


Données Historiques de Météogheer
Journalier Rapport pour Décembre 13, 2017 Unitée:  Métrique    Impériale   Les deux
Suivant Jour »
Journalier Hebdomadaire Mensuel Annuel Sur mesure
  Max: Min: Moyenne:
Température: 8.7 °C 0.0 °C 5.8 °C
Point de rosée: 9.0 °C 2.0 °C 5.8 °C
Humidité: 98% 0% 96%
Vent: 33.5km/h 0.0km/h 13.1km/h
Rafales: 1105.4km/h - -
Vent- - SW
Pression: 1011.1 hPa 0.0 hPa -
Pluie: 0.0 mm    
Historical Graphs
 
 
Données tabulaires pour Décembre 13, 2017
Heure Température Point de rosée Pression Vent Vent Rafales Humidité Pluie Taux (Horaire) Conditions
00:00 2.0 °C 2.0 °C 1011.1 hPa South 11.6 km/h 16.3 km/h 98% 0.0 mm
00:05 2.0 °C 2.0 °C 1011.1 hPa South 14.0 km/h 15.4 km/h 98% 0.0 mm
00:10 2.1 °C 2.0 °C 1011.1 hPa South 6.4 km/h 15.1 km/h 98% 0.0 mm
00:15 2.1 °C 2.0 °C 1011.1 hPa SSW 9.7 km/h 14.0 km/h 98% 0.0 mm
00:20 2.1 °C 2.0 °C 1011.1 hPa SSW 10.5 km/h 17.2 km/h 98% 0.0 mm
00:25 2.2 °C 2.0 °C 1011.1 hPa SSW 13.7 km/h 17.2 km/h 98% 0.0 mm
00:30 2.3 °C 3.0 °C 1011.1 hPa SW 10.5 km/h 19.8 km/h 98% 0.0 mm
00:35 2.3 °C 3.0 °C 1011.1 hPa South 15.8 km/h 19.8 km/h 98% 0.0 mm
00:40 2.3 °C 3.0 °C 1011.1 hPa South 6.1 km/h 16.9 km/h 98% 0.0 mm
00:55 2.4 °C 3.0 °C 1010.0 hPa South 14.0 km/h 22.4 km/h 98% 0.0 mm
01:16 2.5 °C 3.0 °C 1010.0 hPa SSW 12.6 km/h 20.6 km/h 98% 0.0 mm
01:21 2.5 °C 3.0 °C 1010.0 hPa SSW 12.2 km/h 19.8 km/h 98% 0.0 mm
01:26 2.5 °C 3.0 °C 1010.0 hPa SSW 13.0 km/h 19.8 km/h 98% 0.0 mm
01:36 2.4 °C 3.0 °C 1009.0 hPa South 10.1 km/h 20.9 km/h 98% 0.0 mm
01:41 2.4 °C 3.0 °C 1009.0 hPa SSW 16.3 km/h 24.5 km/h 98% 0.0 mm
01:46 2.4 °C 3.0 °C 1009.0 hPa South 10.1 km/h 24.5 km/h 98% 0.3 mm
01:56 2.4 °C 3.0 °C 1009.0 hPa SSW 13.7 km/h 18.0 km/h 98% 0.3 mm
02:11 2.5 °C 3.0 °C 1009.0 hPa SSW 12.6 km/h 23.8 km/h 98% 0.3 mm
02:26 2.6 °C 3.0 °C 1008.0 hPa SSW 12.6 km/h 23.3 km/h 98% 0.3 mm
02:37 2.6 °C 3.0 °C 1008.0 hPa SSW 13.7 km/h 17.2 km/h 98% 0.3 mm
02:42 2.6 °C 3.0 °C 1009.0 hPa SSW 9.3 km/h 21.2 km/h 98% 0.3 mm
02:47 2.7 °C 3.0 °C 1009.0 hPa South 19.8 km/h 21.2 km/h 98% 0.0 mm
02:52 2.7 °C 3.0 °C 1009.0 hPa SW 9.7 km/h 19.8 km/h 98% 0.0 mm
02:57 2.8 °C 3.0 °C 1008.0 hPa South 14.0 km/h 22.4 km/h 98% 0.0 mm
03:08 0.0 °C 3.0 °C 0.0 hPa South 12.6 km/h 12.6 km/h 0% 0.0 mm
03:13 3.1 °C 3.0 °C 1007.0 hPa SSW 17.7 km/h 20.1 km/h 98% 0.0 mm
03:18 3.1 °C 3.0 °C 1007.0 hPa South 16.3 km/h 23.8 km/h 98% 0.0 mm
03:23 3.1 °C 3.0 °C 1007.0 hPa South 9.7 km/h 23.8 km/h 98% 0.0 mm
03:28 3.2 °C 3.0 °C 1007.0 hPa SSW 16.3 km/h 23.0 km/h 98% 0.0 mm
03:38 3.3 °C 3.0 °C 1007.0 hPa South 16.3 km/h 20.9 km/h 98% 0.0 mm
03:44 3.4 °C 3.0 °C 1007.0 hPa South 18.3 km/h 20.1 km/h 98% 0.0 mm
03:49 3.5 °C 4.0 °C 1007.0 hPa SSW 14.3 km/h 20.1 km/h 98% 0.0 mm
04:14 3.7 °C 4.0 °C 1006.0 hPa SSW 13.0 km/h 19.5 km/h 98% 0.0 mm
04:19 3.7 °C 4.0 °C 1006.0 hPa South 12.6 km/h 20.1 km/h 98% 0.0 mm
04:25 3.7 °C 4.0 °C 1006.0 hPa South 16.3 km/h 24.8 km/h 98% 0.0 mm
04:26 3.7 °C 4.0 °C 1007.0 hPa South 11.9 km/h 24.8 km/h 98% 0.0 mm
04:37 3.7 °C 4.0 °C 1007.0 hPa SSW 15.4 km/h 21.2 km/h 98% 0.3 mm
04:47 3.7 °C 4.0 °C 1006.0 hPa South 17.2 km/h 20.1 km/h 98% 0.3 mm
04:52 3.8 °C 4.0 °C 1006.0 hPa SSE 20.9 km/h 24.5 km/h 98% 0.3 mm
04:57 3.8 °C 4.0 °C 1005.0 hPa SSW 13.0 km/h 25.3 km/h 98% 0.3 mm
05:02 3.8 °C 4.0 °C 1005.0 hPa South 14.0 km/h 25.3 km/h 98% 0.3 mm
05:07 3.9 °C 4.0 °C 1005.0 hPa South 16.3 km/h 28.0 km/h 98% 0.3 mm
05:12 4.0 °C 4.0 °C 1005.0 hPa SSW 22.7 km/h 28.0 km/h 98% 0.3 mm
05:17 4.0 °C 4.0 °C 1005.0 hPa South 20.9 km/h 22.7 km/h 98% 0.3 mm
05:27 4.1 °C 4.0 °C 1005.0 hPa South 16.9 km/h 27.0 km/h 98% 0.5 mm
05:37 4.1 °C 4.0 °C 1005.0 hPa SSW 19.1 km/h 23.8 km/h 98% 0.3 mm
05:42 4.2 °C 4.0 °C 1003.9 hPa SSW 13.0 km/h 24.5 km/h 98% 0.3 mm
05:47 4.3 °C 4.0 °C 1003.9 hPa South 24.8 km/h 28.0 km/h 98% 0.3 mm
05:52 4.3 °C 4.0 °C 1003.9 hPa South 20.9 km/h 28.0 km/h 98% 0.3 mm
05:57 4.3 °C 4.0 °C 1003.9 hPa SSW 16.3 km/h 32.8 km/h 98% 0.3 mm
06:03 4.4 °C 4.0 °C 1003.9 hPa SSW 16.3 km/h 32.8 km/h 98% 0.3 mm
06:08 4.4 °C 4.0 °C 1003.9 hPa WSW 16.6 km/h 27.4 km/h 98% 0.3 mm
06:13 4.5 °C 5.0 °C 1002.9 hPa SSW 13.0 km/h 28.8 km/h 98% 0.3 mm
06:18 4.6 °C 5.0 °C 1002.9 hPa SSW 20.1 km/h 28.8 km/h 98% 0.5 mm
06:23 4.6 °C 5.0 °C 1002.9 hPa SSW 16.6 km/h 28.5 km/h 98% 0.5 mm
06:33 4.5 °C 5.0 °C 1001.9 hPa South 13.0 km/h 33.1 km/h 98% 0.3 mm
06:43 4.5 °C 5.0 °C 1002.9 hPa South 17.2 km/h 28.5 km/h 98% 0.3 mm
06:48 4.5 °C 5.0 °C 1002.9 hPa WSW 11.9 km/h 28.5 km/h 98% 0.3 mm
06:53 4.5 °C 5.0 °C 1002.9 hPa SSW 20.9 km/h 27.4 km/h 98% 0.3 mm
06:58 4.4 °C 4.0 °C 1002.9 hPa South 20.1 km/h 25.3 km/h 98% 0.5 mm
07:08 4.5 °C 5.0 °C 1002.9 hPa SW 12.2 km/h 21.2 km/h 98% 0.5 mm
07:18 4.4 °C 4.0 °C 1001.9 hPa SSW 16.3 km/h 21.9 km/h 98% 0.3 mm
07:23 4.4 °C 4.0 °C 1001.9 hPa South 28.5 km/h 28.5 km/h 98% 0.3 mm
07:28 4.4 °C 4.0 °C 1001.9 hPa SSW 11.6 km/h 28.5 km/h 98% 0.3 mm
07:30 4.4 °C 4.0 °C 1001.9 hPa South 14.3 km/h 28.5 km/h 98% 0.3 mm
07:35 4.5 °C 5.0 °C 1001.9 hPa SSW 13.0 km/h 27.4 km/h 98% 0.3 mm
07:40 4.5 °C 5.0 °C 1001.9 hPa SSW 19.8 km/h 27.4 km/h 98% 0.3 mm
07:45 4.5 °C 5.0 °C 1001.9 hPa SSW 13.7 km/h 27.4 km/h 98% 0.3 mm
07:50 4.6 °C 5.0 °C 1001.9 hPa SSW 12.6 km/h 30.9 km/h 98% 0.3 mm
07:55 4.6 °C 5.0 °C 1000.9 hPa South 15.4 km/h 30.9 km/h 98% 0.3 mm
08:00 4.7 °C 5.0 °C 1000.9 hPa SSW 16.3 km/h 33.1 km/h 98% 0.0 mm
08:05 4.7 °C 5.0 °C 1000.9 hPa South 16.9 km/h 33.1 km/h 98% 0.0 mm
08:10 4.7 °C 5.0 °C 1000.9 hPa South 13.0 km/h 27.7 km/h 98% 0.0 mm
08:15 4.7 °C 5.0 °C 1000.9 hPa SSW 16.3 km/h 25.6 km/h 98% 0.0 mm
08:21 4.7 °C 5.0 °C 1000.9 hPa South 12.6 km/h 24.5 km/h 98% 0.0 mm
08:26 4.8 °C 5.0 °C 1000.9 hPa SSW 12.6 km/h 24.5 km/h 98% 0.0 mm
08:31 4.8 °C 5.0 °C 1000.9 hPa SSW 11.9 km/h 23.3 km/h 98% 0.0 mm
08:36 4.8 °C 5.0 °C 1000.9 hPa SSW 13.7 km/h 27.4 km/h 98% 0.0 mm
08:46 5.0 °C 5.0 °C 1000.9 hPa WSW 14.0 km/h 30.6 km/h 98% 0.0 mm
08:51 5.0 °C 5.0 °C 1000.9 hPa SW 12.2 km/h 20.1 km/h 98% 0.0 mm
08:56 5.0 °C 5.0 °C 1000.9 hPa South 15.8 km/h 20.6 km/h 98% 0.0 mm
08:59 5.0 °C 5.0 °C 1000.9 hPa South 16.3 km/h 31.4 km/h 98% 0.0 mm
09:09 5.1 °C 5.0 °C 1000.9 hPa WSW 13.7 km/h 25.6 km/h 98% 0.0 mm
09:14 5.2 °C 5.0 °C 1000.9 hPa SSW 11.9 km/h 22.4 km/h 98% 0.0 mm
09:19 5.2 °C 5.0 °C 1000.9 hPa WSW 11.9 km/h 22.4 km/h 98% 0.0 mm
09:24 5.3 °C 6.0 °C 1000.9 hPa SSW 16.6 km/h 20.9 km/h 98% 0.0 mm
09:29 5.4 °C 6.0 °C 1000.9 hPa WSW 13.0 km/h 22.4 km/h 98% 0.0 mm
09:44 5.8 °C 6.0 °C 999.9 hPa SSW 16.3 km/h 24.5 km/h 98% 0.0 mm
09:49 6.0 °C 6.0 °C 999.9 hPa SW 17.2 km/h 28.0 km/h 98% 0.0 mm
10:04 6.2 °C 6.0 °C 999.9 hPa SW 12.6 km/h 24.8 km/h 98% 0.0 mm
10:15 6.4 °C 6.0 °C 999.9 hPa WSW 12.2 km/h 21.2 km/h 98% 0.3 mm
10:20 6.4 °C 6.0 °C 999.9 hPa WSW 17.7 km/h 24.5 km/h 98% 0.3 mm
10:30 6.5 °C 7.0 °C 999.9 hPa SSW 14.0 km/h 23.8 km/h 98% 0.3 mm
10:35 6.6 °C 7.0 °C 999.9 hPa SW 13.7 km/h 23.0 km/h 98% 0.3 mm
10:40 6.7 °C 7.0 °C 999.9 hPa SSW 12.6 km/h 23.0 km/h 98% 0.3 mm
10:50 6.8 °C 7.0 °C 999.9 hPa SW 8.7 km/h 19.1 km/h 98% 0.3 mm
10:55 6.8 °C 7.0 °C 999.9 hPa SW 13.7 km/h 16.3 km/h 98% 0.3 mm
11:00 6.8 °C 7.0 °C 999.9 hPa WSW 13.7 km/h 16.3 km/h 98% 0.3 mm
11:05 6.8 °C 7.0 °C 999.9 hPa SSW 12.2 km/h 15.1 km/h 98% 0.3 mm
11:10 6.8 °C 7.0 °C 999.9 hPa WSW 9.3 km/h 15.1 km/h 98% 0.3 mm
11:15 6.8 °C 7.0 °C 999.9 hPa WSW 10.1 km/h 13.7 km/h 98% 0.0 mm
11:20 6.8 °C 7.0 °C 999.9 hPa SSW 10.1 km/h 12.2 km/h 98% 0.0 mm
11:25 6.9 °C 7.0 °C 999.9 hPa SW 9.3 km/h 12.2 km/h 98% 0.0 mm
11:30 7.0 °C 7.0 °C 999.9 hPa SW 8.7 km/h 11.6 km/h 98% 0.0 mm
11:35 7.0 °C 7.0 °C 999.9 hPa SSW 9.3 km/h 11.9 km/h 98% 0.0 mm
11:40 7.0 °C 7.0 °C 999.9 hPa SW 12.6 km/h 14.0 km/h 98% 0.0 mm
11:45 7.3 °C 7.0 °C 999.9 hPa SSW 9.0 km/h 15.4 km/h 98% 0.0 mm
11:51 7.4 °C 7.0 °C 999.9 hPa SSW 11.9 km/h 15.4 km/h 98% 0.0 mm
11:56 7.4 °C 7.0 °C 999.9 hPa WSW 9.3 km/h 15.8 km/h 98% 0.0 mm
12:01 7.5 °C 8.0 °C 999.9 hPa SW 6.4 km/h 15.8 km/h 98% 0.0 mm
12:06 7.6 °C 8.0 °C 999.9 hPa SW 9.7 km/h 13.0 km/h 98% 0.0 mm
12:16 7.7 °C 8.0 °C 999.9 hPa SSW 9.0 km/h 13.7 km/h 98% 0.0 mm
12:21 7.7 °C 8.0 °C 999.9 hPa SW 9.7 km/h 13.7 km/h 98% 0.0 mm
12:26 7.8 °C 8.0 °C 998.9 hPa SW 8.7 km/h 13.0 km/h 98% 0.0 mm
12:31 7.8 °C 8.0 °C 998.9 hPa SW 7.6 km/h 13.0 km/h 98% 0.0 mm
12:36 7.8 °C 8.0 °C 998.9 hPa SSW 9.3 km/h 13.7 km/h 98% 0.0 mm
12:41 7.9 °C 8.0 °C 997.9 hPa WSW 9.0 km/h 13.7 km/h 98% 0.0 mm
12:46 7.9 °C 8.0 °C 997.9 hPa SW 7.2 km/h 13.7 km/h 98% 0.0 mm
12:56 7.9 °C 8.0 °C 998.9 hPa SSW 13.0 km/h 16.6 km/h 98% 0.0 mm
13:12 7.9 °C 8.0 °C 998.9 hPa SW 13.0 km/h 16.3 km/h 98% 0.3 mm
13:17 7.9 °C 8.0 °C 998.9 hPa SW 14.3 km/h 15.8 km/h 98% 0.3 mm
13:27 8.0 °C 8.0 °C 998.9 hPa WSW 13.0 km/h 16.3 km/h 98% 0.3 mm
13:32 8.0 °C 8.0 °C 998.9 hPa WSW 13.0 km/h 16.9 km/h 98% 0.3 mm
13:37 8.0 °C 8.0 °C 998.9 hPa WSW 9.0 km/h 16.9 km/h 98% 0.5 mm
13:42 8.0 °C 8.0 °C 997.9 hPa SW 9.7 km/h 16.6 km/h 98% 0.5 mm
13:52 7.9 °C 8.0 °C 997.9 hPa SSW 9.0 km/h 13.0 km/h 98% 0.5 mm
13:57 7.9 °C 8.0 °C 997.9 hPa SSW 9.0 km/h 11.9 km/h 98% 0.5 mm
14:02 7.9 °C 8.0 °C 997.9 hPa SW 10.1 km/h 13.0 km/h 98% 0.5 mm
14:07 7.8 °C 8.0 °C 997.9 hPa SW 9.7 km/h 13.0 km/h 98% 0.3 mm
14:12 7.8 °C 8.0 °C 997.9 hPa SW 9.7 km/h 11.9 km/h 98% 0.5 mm
14:17 7.8 °C 8.0 °C 997.9 hPa SSW 7.6 km/h 13.0 km/h 98% 0.5 mm
14:28 7.8 °C 8.0 °C 996.8 hPa SW 9.0 km/h 11.9 km/h 98% 0.5 mm
14:43 7.8 °C 8.0 °C 996.8 hPa SW 6.9 km/h 15.8 km/h 98% 0.3 mm
14:48 7.8 °C 8.0 °C 996.8 hPa Calm   15.8 km/h 98% 0.3 mm
14:53 7.9 °C 8.0 °C 996.8 hPa SSW 11.9 km/h 14.0 km/h 98% 0.3 mm
14:58 7.9 °C 8.0 °C 996.8 hPa WSW 13.0 km/h 14.0 km/h 98% 0.3 mm
15:03 7.9 °C 8.0 °C 996.8 hPa SSW 11.6 km/h 14.0 km/h 98% 0.3 mm
15:09 7.9 °C 8.0 °C 996.8 hPa South 7.9 km/h 16.6 km/h 98% 0.5 mm
15:14 8.0 °C 8.0 °C 996.8 hPa SSW 10.1 km/h 16.6 km/h 98% 0.3 mm
15:19 8.0 °C 8.0 °C 996.8 hPa SSW 9.3 km/h 15.4 km/h 98% 0.3 mm
15:24 8.0 °C 8.0 °C 996.8 hPa SW 8.7 km/h 14.0 km/h 98% 0.3 mm
15:49 8.0 °C 8.0 °C 995.1 hPa SSW 6.9 km/h 14.0 km/h 98% 0.3 mm
15:59 8.0 °C 8.0 °C 995.1 hPa WSW 10.5 km/h 14.0 km/h 98% 0.8 mm
16:09 8.1 °C 8.0 °C 995.1 hPa SSW 10.5 km/h 16.3 km/h 98% 0.3 mm
16:19 8.1 °C 8.0 °C 995.1 hPa SW 10.1 km/h 18.0 km/h 98% 0.3 mm
16:24 8.1 °C 8.0 °C 995.1 hPa WSW 10.1 km/h 18.0 km/h 98% 0.8 mm
16:29 8.1 °C 8.0 °C 994.1 hPa SSW 12.6 km/h 19.5 km/h 98% 1.0 mm
16:34 8.1 °C 8.0 °C 994.1 hPa SSW 9.7 km/h 19.5 km/h 98% 1.3 mm
16:39 8.1 °C 8.0 °C 994.1 hPa South 13.7 km/h 16.3 km/h 98% 1.5 mm
16:44 8.1 °C 8.0 °C 994.1 hPa SSW 7.9 km/h 16.6 km/h 98% 1.8 mm
16:49 8.1 °C 8.0 °C 994.1 hPa SSW 13.0 km/h 16.6 km/h 98% 1.8 mm
16:54 8.1 °C 8.0 °C 994.1 hPa SSW 9.0 km/h 16.9 km/h 98% 2.3 mm
17:10 8.2 °C 8.0 °C 993.1 hPa SSW 8.7 km/h 14.0 km/h 98% 2.3 mm
17:20 8.2 °C 8.0 °C 993.1 hPa SW 7.9 km/h 19.5 km/h 98% 2.5 mm
17:25 8.3 °C 9.0 °C 993.1 hPa WSW 16.3 km/h 16.3 km/h 98% 2.5 mm
17:30 8.3 °C 9.0 °C 992.1 hPa South 13.0 km/h 16.3 km/h 98% 2.5 mm
17:35 8.3 °C 9.0 °C 992.1 hPa South 13.0 km/h 16.3 km/h 98% 2.3 mm
17:40 8.4 °C 9.0 °C 992.1 hPa SSW 17.2 km/h 24.5 km/h 98% 1.8 mm
17:45 8.4 °C 9.0 °C 991.1 hPa WSW 12.6 km/h 24.5 km/h 98% 2.3 mm
17:50 8.5 °C 9.0 °C 991.1 hPa WSW 14.8 km/h 24.8 km/h 98% 1.8 mm
17:55 8.5 °C 9.0 °C 991.1 hPa SW 12.6 km/h 24.8 km/h 98% 2.8 mm
18:05 8.4 °C 9.0 °C 991.1 hPa WSW 17.2 km/h 24.5 km/h 98% 3.6 mm
18:15 8.4 °C 9.0 °C 990.1 hPa SSW 22.7 km/h 27.0 km/h 98% 4.6 mm
18:25 8.4 °C 9.0 °C 990.1 hPa WSW 15.4 km/h 26.7 km/h 98% 4.3 mm
18:30 8.4 °C 9.0 °C 991.1 hPa SW 14.3 km/h 26.7 km/h 98% 4.3 mm
18:35 8.4 °C 9.0 °C 991.1 hPa SW 12.2 km/h 22.4 km/h 98% 4.3 mm
18:40 8.4 °C 9.0 °C 991.1 hPa WSW 16.9 km/h 21.2 km/h 98% 5.8 mm
18:45 8.4 °C 9.0 °C 990.1 hPa WSW 13.0 km/h 20.1 km/h 98% 5.3 mm
18:50 8.4 °C 9.0 °C 990.1 hPa WSW 16.3 km/h 20.1 km/h 98% 5.6 mm
18:55 8.5 °C 9.0 °C 990.1 hPa SW 15.8 km/h 19.5 km/h 98% 4.6 mm
19:00 8.5 °C 9.0 °C 989.1 hPa WSW 16.9 km/h 19.5 km/h 98% 4.3 mm
19:10 8.6 °C 9.0 °C 989.1 hPa SW 15.8 km/h 21.2 km/h 98% 3.0 mm
19:15 8.6 °C 9.0 °C 990.1 hPa WSW 21.2 km/h 23.8 km/h 98% 2.5 mm
19:20 8.6 °C 9.0 °C 990.1 hPa WSW 20.1 km/h 1105.4 km/h 98% 2.5 mm
19:25 8.7 °C 9.0 °C 990.1 hPa WSW 24.5 km/h 1105.4 km/h 98% 2.3 mm
19:35 8.5 °C 9.0 °C 989.1 hPa West 17.7 km/h 48.3 km/h 98% 4.1 mm
19:37 8.5 °C 9.0 °C 989.1 hPa West 5.8 km/h 48.3 km/h 98% 4.1 mm
19:42 8.4 °C 9.0 °C 990.1 hPa West 15.8 km/h 38.1 km/h 98% 2.5 mm
19:47 8.2 °C 8.0 °C 990.1 hPa West 14.0 km/h 27.7 km/h 98% 2.3 mm
19:52 8.2 °C 8.0 °C 990.1 hPa West 15.4 km/h 27.7 km/h 98% 2.3 mm
20:07 7.8 °C 8.0 °C 989.1 hPa WNW 20.6 km/h 29.9 km/h 98% 2.3 mm
20:12 7.6 °C 7.0 °C 990.1 hPa West 16.9 km/h 29.9 km/h 96% 2.3 mm
20:28 7.3 °C 7.0 °C 991.1 hPa West 20.6 km/h 32.8 km/h 95% 2.3 mm
20:33 7.2 °C 7.0 °C 991.1 hPa West 17.2 km/h 32.8 km/h 95% 2.3 mm
20:38 7.0 °C 6.0 °C 991.1 hPa WSW 16.3 km/h 25.6 km/h 95% 0.3 mm
20:43 7.0 °C 6.0 °C 991.1 hPa West 33.5 km/h 33.5 km/h 95% 210.6 mm
20:48 7.1 °C 6.0 °C 991.1 hPa NW 13.7 km/h 33.5 km/h 95% 0.3 mm
20:54 7.0 °C 6.0 °C 991.1 hPa WSW 17.7 km/h 33.5 km/h 95% 0.3 mm
20:59 6.8 °C 6.0 °C 991.1 hPa WNW 13.7 km/h 19.5 km/h 93% 0.3 mm
21:04 6.7 °C 6.0 °C 991.1 hPa WNW 20.9 km/h 22.7 km/h 91% 0.0 mm
21:09 6.5 °C 6.0 °C 991.1 hPa West 17.7 km/h 22.7 km/h 91% 0.0 mm
21:19 6.2 °C 5.0 °C 991.1 hPa WSW 12.6 km/h 23.8 km/h 90% 0.0 mm
21:24 6.1 °C 5.0 °C 991.1 hPa WNW 8.7 km/h 26.7 km/h 90% 0.0 mm
21:34 5.9 °C 5.0 °C 991.1 hPa West 15.8 km/h 20.1 km/h 89% 0.0 mm
21:39 5.7 °C 4.0 °C 991.1 hPa West 13.0 km/h 21.2 km/h 88% 0.0 mm
21:50 5.7 °C 4.0 °C 991.1 hPa West 9.3 km/h 26.2 km/h 88% 0.0 mm
21:55 5.7 °C 4.0 °C 991.1 hPa West 16.6 km/h 26.2 km/h 88% 0.0 mm
22:00 5.7 °C 4.0 °C 991.1 hPa SW 13.7 km/h 20.9 km/h 88% 0.0 mm
22:05 5.7 °C 4.0 °C 991.1 hPa WSW 8.7 km/h 16.6 km/h 88% 0.0 mm
22:10 5.7 °C 4.0 °C 991.1 hPa WSW 12.2 km/h 13.7 km/h 88% 0.0 mm
22:15 5.7 °C 4.0 °C 991.1 hPa WSW 11.6 km/h 13.7 km/h 88% 0.0 mm
22:20 5.7 °C 4.0 °C 991.1 hPa WSW 6.9 km/h 13.7 km/h 88% 0.0 mm
22:25 5.7 °C 4.0 °C 991.1 hPa WSW 6.4 km/h 13.0 km/h 88% 0.0 mm
22:30 5.7 °C 4.0 °C 991.1 hPa WSW 10.1 km/h 13.0 km/h 88% 0.0 mm
22:35 5.7 °C 4.0 °C 991.1 hPa WSW 9.7 km/h 11.9 km/h 88% 0.0 mm
22:40 5.7 °C 4.0 °C 991.1 hPa WSW 9.7 km/h 11.9 km/h 88% 0.0 mm
22:45 5.7 °C 4.0 °C 991.1 hPa Calm   13.7 km/h 88% 0.0 mm
22:50 5.7 °C 4.0 °C 991.1 hPa WSW 5.8 km/h 13.7 km/h 88% 0.0 mm
23:00 5.7 °C 4.0 °C 991.1 hPa WSW 8.7 km/h 10.5 km/h 88% 0.0 mm
23:05 4.3 °C 3.0 °C 991.1 hPa WSW 13.0 km/h 13.0 km/h 92% 0.0 mm
23:15 4.4 °C 3.0 °C 991.1 hPa WSW 7.9 km/h 15.4 km/h 93% 0.0 mm
23:20 4.4 °C 3.0 °C 991.1 hPa WSW 10.1 km/h 14.3 km/h 93% 0.0 mm
23:25 0.0 °C 4.0 °C 989.1 hPa WSW 8.7 km/h 11.9 km/h 0% 0.0 mm
23:36 4.6 °C 4.0 °C 989.1 hPa SW 6.4 km/h 10.1 km/h 94% 0.0 mm
23:46 4.6 °C 4.0 °C 989.1 hPa Calm   9.0 km/h 94% 0.0 mm
23:56 4.9 °C 4.0 °C 989.1 hPa SSW 9.7 km/h 13.7 km/h 94% 0.0 mm
Données Historique de Météo Turbie

Mise a jour : 22/05/2018 21:36:12
Généré par Cumulus 1.9.4 (1099)